createdAt,value
2023-02-27T00:04:07.347Z,-0.08
2023-02-27T00:09:13.167Z,-0.12
2023-02-27T00:14:19.279Z,-0.17
2023-02-27T00:19:25.432Z,-0.16
2023-02-27T00:24:31.439Z,-0.10
2023-02-27T00:29:37.612Z,-0.06
2023-02-27T00:34:43.944Z,-0.06
2023-02-27T00:39:50.418Z,-0.06
2023-02-27T00:44:56.153Z,-0.09
2023-02-27T00:50:02.625Z,-0.13
2023-02-27T00:55:10.473Z,-0.13
2023-02-27T01:00:17.983Z,-0.09
2023-02-27T01:05:24.236Z,-0.04
2023-02-27T01:10:30.744Z,-0.04
2023-02-27T01:15:37.933Z,-0.08
2023-02-27T01:20:43.701Z,-0.14
2023-02-27T01:25:52.053Z,-0.20
2023-02-27T01:30:57.865Z,-0.24
2023-02-27T01:36:04.066Z,-0.24
2023-02-27T01:41:10.114Z,-0.20
2023-02-27T01:46:16.081Z,-0.18
2023-02-27T01:51:24.082Z,-0.24
2023-02-27T01:56:32.305Z,-0.28
2023-02-27T02:01:39.153Z,-0.21
2023-02-27T02:06:50.389Z,-0.16
2023-02-27T02:11:59.801Z,-0.15
2023-02-27T02:17:18.553Z,-0.17
2023-02-27T02:23:15.832Z,-0.21
2023-02-27T02:28:43.908Z,-0.26
2023-02-27T02:34:19.518Z,-0.28
2023-02-27T02:39:46.084Z,-0.22
2023-02-27T02:45:03.156Z,-0.14
2023-02-27T02:50:14.890Z,-0.10
2023-02-27T02:55:24.865Z,-0.09
2023-02-27T03:00:35.877Z,-0.14
2023-02-27T03:05:49.109Z,-0.20
2023-02-27T03:10:57.867Z,-0.23
2023-02-27T03:16:08.101Z,-0.21
2023-02-27T03:21:22.746Z,-0.20
2023-02-27T03:26:34.041Z,-0.23
2023-02-27T03:31:47.736Z,-0.34
2023-02-27T03:37:01.402Z,-0.43
2023-02-27T03:42:16.489Z,-0.47
2023-02-27T03:47:55.226Z,-0.48
2023-02-27T03:53:03.840Z,-0.49
2023-02-27T03:58:09.808Z,-0.52
2023-02-27T04:03:16.076Z,-0.60
2023-02-27T04:08:44.601Z,-0.67
2023-02-27T04:14:07.293Z,-0.67
2023-02-27T04:19:27.681Z,-0.64
2023-02-27T04:24:42.892Z,-0.60
2023-02-27T04:29:58.218Z,-0.60
2023-02-27T04:35:11.642Z,-0.66
2023-02-27T04:40:21.094Z,-0.72
2023-02-27T04:45:30.022Z,-0.70
2023-02-27T04:50:42.338Z,-0.63
2023-02-27T04:55:51.601Z,-0.57
2023-02-27T05:01:01.616Z,-0.57
2023-02-27T05:06:11.473Z,-0.57
2023-02-27T05:11:25.204Z,-0.59
2023-02-27T05:16:37.300Z,-0.62
2023-02-27T05:21:51.936Z,-0.61
2023-02-27T05:27:24.228Z,-0.55
2023-02-27T05:32:40.855Z,-0.48
2023-02-27T05:37:50.463Z,-0.48
2023-02-27T05:43:02.355Z,-0.53
2023-02-27T05:48:12.697Z,-0.60
2023-02-27T05:53:21.418Z,-0.68
2023-02-27T05:58:30.948Z,-0.76
2023-02-27T06:03:38.445Z,-0.87
2023-02-27T06:08:45.467Z,-0.87
2023-02-27T06:13:51.194Z,-0.80
2023-02-27T06:18:57.757Z,-0.78
2023-02-27T06:24:04.648Z,-0.65
2023-02-27T06:29:10.383Z,-0.48
2023-02-27T06:34:16.096Z,-0.30
2023-02-27T06:39:22.858Z,-0.09
2023-02-27T06:44:29.428Z,0.08
2023-02-27T06:49:36.498Z,0.17
2023-02-27T06:54:42.335Z,1.04
2023-02-27T06:59:48.028Z,3.79
2023-02-27T07:04:53.679Z,5.56
2023-02-27T07:09:59.686Z,7.75
2023-02-27T07:15:07.886Z,8.49
2023-02-27T07:20:15.368Z,9.43
2023-02-27T07:25:21.415Z,10.29
2023-02-27T07:30:27.328Z,10.08
2023-02-27T07:35:33.204Z,9.48
2023-02-27T07:40:39.330Z,9.55
2023-02-27T07:45:45.156Z,10.18
2023-02-27T07:50:50.849Z,11.13
2023-02-27T07:55:56.812Z,13.37
2023-02-27T08:01:03.201Z,15.22
2023-02-27T08:06:09.155Z,16.21
2023-02-27T08:11:15.751Z,15.41
2023-02-27T08:16:21.472Z,14.95
2023-02-27T08:21:28.010Z,16.48
2023-02-27T08:26:34.004Z,18.04
2023-02-27T08:31:40.049Z,19.45
2023-02-27T08:36:46.549Z,19.85
2023-02-27T08:41:53.651Z,18.25
2023-02-27T08:46:59.430Z,17.70
2023-02-27T08:52:05.990Z,14.56
2023-02-27T08:57:11.872Z,13.63
2023-02-27T09:02:18.395Z,11.58
2023-02-27T09:07:24.303Z,9.53
2023-02-27T09:12:30.518Z,8.58
2023-02-27T09:17:36.457Z,7.32
2023-02-27T09:22:42.719Z,6.26
2023-02-27T09:27:49.041Z,5.66
2023-02-27T09:32:55.155Z,5.03
2023-02-27T09:38:01.848Z,4.53
2023-02-27T09:43:17.384Z,4.30
2023-02-27T09:48:30.649Z,3.92
2023-02-27T09:53:41.164Z,3.48
2023-02-27T09:58:52.738Z,3.38
2023-02-27T10:04:13.754Z,3.34
2023-02-27T10:09:35.438Z,3.11
2023-02-27T10:14:47.317Z,2.99
2023-02-27T10:19:54.956Z,2.86
2023-02-27T10:25:04.447Z,2.69
2023-02-27T10:30:29.856Z,2.40
2023-02-27T10:35:40.459Z,2.11
2023-02-27T10:40:48.512Z,2.15
2023-02-27T10:45:56.187Z,2.58
2023-02-27T10:51:24.388Z,3.19
2023-02-27T10:56:31.232Z,3.21
2023-02-27T11:01:50.068Z,3.04
2023-02-27T11:06:57.577Z,2.74
2023-02-27T11:12:25.374Z,2.59
2023-02-27T11:17:35.012Z,2.52
2023-02-27T11:22:41.968Z,2.44
2023-02-27T11:27:48.496Z,2.39
2023-02-27T11:32:57.002Z,2.39
2023-02-27T11:38:05.427Z,2.57
2023-02-27T11:43:20.461Z,2.76
2023-02-27T11:48:30.917Z,2.87
2023-02-27T11:54:16.449Z,2.77
2023-02-27T11:59:38.933Z,2.54
2023-02-27T12:04:51.869Z,2.29
2023-02-27T12:10:04.929Z,2.11
2023-02-27T12:15:24.072Z,1.96
2023-02-27T12:20:36.110Z,1.72
2023-02-27T12:25:49.372Z,1.50
2023-02-27T12:31:07.498Z,1.47
2023-02-27T12:36:15.337Z,1.39
2023-02-27T12:41:42.486Z,1.26
2023-02-27T12:46:55.306Z,1.06
2023-02-27T12:52:13.402Z,1.00
2023-02-27T12:57:37.260Z,0.92
2023-02-27T13:02:49.930Z,0.88
2023-02-27T13:08:05.344Z,0.91
2023-02-27T13:13:18.018Z,1.03
2023-02-27T13:18:37.427Z,1.20
2023-02-27T13:23:55.821Z,1.37
2023-02-27T13:29:03.549Z,1.36
2023-02-27T13:34:18.316Z,1.26
2023-02-27T13:39:56.100Z,1.15
2023-02-27T13:45:04.744Z,1.17
2023-02-27T13:50:52.996Z,1.20
2023-02-27T14:01:36.976Z,1.20
2023-02-27T14:06:47.607Z,1.17
2023-02-27T14:11:59.737Z,1.11
2023-02-27T14:17:06.633Z,1.09
2023-02-27T14:22:32.762Z,1.05
2023-02-27T14:27:49.737Z,0.94
2023-02-27T14:33:00.816Z,0.81
2023-02-27T14:38:11.877Z,0.88
2023-02-27T14:43:29.329Z,0.82
2023-02-27T14:48:37.859Z,0.69
2023-02-27T14:53:59.567Z,0.50
2023-02-27T14:59:27.744Z,0.28
2023-02-27T15:04:34.749Z,0.16
2023-02-27T15:09:44.791Z,0.08
2023-02-27T15:14:54.381Z,0.08
2023-02-27T15:27:17.138Z,0.17
2023-02-27T15:32:29.901Z,0.14
2023-02-27T15:37:36.593Z,0.01
2023-02-27T15:42:44.509Z,-0.06
2023-02-27T15:47:51.373Z,-0.14
2023-02-27T15:53:04.369Z,-0.26
2023-02-27T15:58:20.083Z,-0.32
2023-02-27T16:03:30.951Z,-0.35
2023-02-27T16:08:35.620Z,-0.41
2023-02-27T16:13:41.893Z,-0.47
2023-02-27T16:18:49.220Z,-0.50
2023-02-27T16:24:15.904Z,-0.53
2023-02-27T16:29:24.121Z,-0.56
2023-02-27T16:34:45.084Z,-0.64
2023-02-27T16:39:54.640Z,-0.70
2023-02-27T16:45:00.763Z,-0.72
2023-02-27T16:50:16.164Z,-0.73
2023-02-27T16:55:22.142Z,-0.76
2023-02-27T17:00:28.690Z,-0.78
2023-02-27T17:05:36.833Z,-0.82
2023-02-27T17:10:45.287Z,-0.84
2023-02-27T17:15:51.553Z,-0.88
2023-02-27T17:21:01.868Z,-0.89
2023-02-27T17:26:07.950Z,-0.89
2023-02-27T17:31:16.038Z,-0.89
2023-02-27T17:36:22.893Z,-0.91
2023-02-27T17:41:37.605Z,-0.93
2023-02-27T17:46:43.512Z,-0.98
2023-02-27T17:51:50.041Z,-1.11
2023-02-27T17:56:56.072Z,-1.22
2023-02-27T18:02:02.480Z,-1.30
2023-02-27T18:07:08.683Z,-1.38
2023-02-27T18:12:15.007Z,-1.45
2023-02-27T18:17:22.206Z,-1.49
2023-02-27T18:22:29.998Z,-1.47
2023-02-27T18:27:40.228Z,-1.41
2023-02-27T18:32:46.158Z,-1.34
2023-02-27T18:37:52.576Z,-1.28
2023-02-27T18:42:59.271Z,-1.22
2023-02-27T18:48:07.024Z,-1.19
2023-02-27T18:53:12.940Z,-1.19
2023-02-27T18:58:19.324Z,-1.18
2023-02-27T19:03:26.395Z,-1.14
2023-02-27T19:08:32.190Z,-1.11
2023-02-27T19:13:38.268Z,-1.09
2023-02-27T19:18:44.299Z,-1.10
2023-02-27T19:23:50.275Z,-1.09
2023-02-27T19:28:57.006Z,-1.10
2023-02-27T19:34:03.635Z,-1.12
2023-02-27T19:39:10.198Z,-1.13
2023-02-27T19:44:16.951Z,-1.16
2023-02-27T19:49:23.424Z,-1.23
2023-02-27T19:54:30.159Z,-1.29
2023-02-27T19:59:35.997Z,-1.38
2023-02-27T20:04:41.956Z,-1.48
2023-02-27T20:09:48.346Z,-1.58
2023-02-27T20:14:54.725Z,-1.74
2023-02-27T20:20:02.905Z,-1.91
2023-02-27T20:25:11.187Z,-2.06
2023-02-27T20:30:18.054Z,-2.19
2023-02-27T20:35:36.767Z,-2.32
2023-02-27T20:40:43.420Z,-2.45
2023-02-27T20:45:49.216Z,-2.57
2023-02-27T20:50:55.272Z,-2.66
2023-02-27T20:56:01.631Z,-2.71
2023-02-27T21:01:11.987Z,-2.78
2023-02-27T21:06:19.703Z,-2.87
2023-02-27T21:11:29.178Z,-2.96
2023-02-27T21:16:36.823Z,-3.08
2023-02-27T21:21:42.907Z,-3.19
2023-02-27T21:26:49.508Z,-3.28
2023-02-27T21:31:55.593Z,-3.39
2023-02-27T21:37:06.198Z,-3.50
2023-02-27T21:42:12.768Z,-3.60
2023-02-27T21:47:19.118Z,-3.69
2023-02-27T21:52:24.895Z,-3.77
2023-02-27T21:57:30.972Z,-3.85
2023-02-27T22:02:38.452Z,-3.95
2023-02-27T22:07:44.177Z,-4.05
2023-02-27T22:12:50.630Z,-4.18
2023-02-27T22:17:56.689Z,-4.31
2023-02-27T22:23:04.791Z,-4.41
2023-02-27T22:28:10.916Z,-4.50
2023-02-27T22:33:16.993Z,-4.59
2023-02-27T22:38:23.006Z,-4.69
2023-02-27T22:43:31.231Z,-4.81
2023-02-27T22:48:38.173Z,-4.92
2023-02-27T22:53:46.113Z,-5.03
2023-02-27T22:58:53.337Z,-5.12
2023-02-27T23:04:02.706Z,-5.22
2023-02-27T23:09:11.034Z,-5.31
2023-02-27T23:14:17.558Z,-5.41
2023-02-27T23:19:24.313Z,-5.43
2023-02-27T23:24:30.411Z,-5.33
2023-02-27T23:29:36.332Z,-5.15
2023-02-27T23:34:49.292Z,-5.08
2023-02-27T23:39:55.736Z,-5.10
2023-02-27T23:45:20.494Z,-5.20
2023-02-27T23:50:29.090Z,-5.34
2023-02-27T23:55:37.746Z,-5.48
